sensor_id;sensor_type;location;lat;lon;timestamp;temperature;humidity
69009;SHT31;56065;52.472;13.380;2023-03-01T00:00:51;0.79;72.04
69009;SHT31;56065;52.472;13.380;2023-03-01T00:03:17;0.76;72.14
69009;SHT31;56065;52.472;13.380;2023-03-01T00:05:46;0.72;72.47
69009;SHT31;56065;52.472;13.380;2023-03-01T00:08:12;0.73;71.52
69009;SHT31;56065;52.472;13.380;2023-03-01T00:10:38;0.72;71.92
69009;SHT31;56065;52.472;13.380;2023-03-01T00:13:03;0.69;71.83
69009;SHT31;56065;52.472;13.380;2023-03-01T00:15:31;0.61;73.27
69009;SHT31;56065;52.472;13.380;2023-03-01T00:17:56;0.59;72.75
69009;SHT31;56065;52.472;13.380;2023-03-01T00:20:22;0.61;72.66
69009;SHT31;56065;52.472;13.380;2023-03-01T00:22:47;0.62;72.50
69009;SHT31;56065;52.472;13.380;2023-03-01T00:25:13;0.61;72.17
69009;SHT31;56065;52.472;13.380;2023-03-01T00:27:38;0.58;72.67
69009;SHT31;56065;52.472;13.380;2023-03-01T00:30:04;0.59;72.69
69009;SHT31;56065;52.472;13.380;2023-03-01T00:32:30;0.58;72.07
69009;SHT31;56065;52.472;13.380;2023-03-01T00:34:55;0.55;72.49
69009;SHT31;56065;52.472;13.380;2023-03-01T00:37:22;0.51;72.69
69009;SHT31;56065;52.472;13.380;2023-03-01T00:39:47;0.46;73.08
69009;SHT31;56065;52.472;13.380;2023-03-01T00:42:13;0.44;72.85
69009;SHT31;56065;52.472;13.380;2023-03-01T00:44:38;0.45;73.29
69009;SHT31;56065;52.472;13.380;2023-03-01T00:47:04;0.45;72.48
69009;SHT31;56065;52.472;13.380;2023-03-01T00:49:29;0.46;72.85
69009;SHT31;56065;52.472;13.380;2023-03-01T00:51:54;0.45;73.05
69009;SHT31;56065;52.472;13.380;2023-03-01T00:54:20;0.41;73.08
69009;SHT31;56065;52.472;13.380;2023-03-01T00:56:45;0.37;72.93
69009;SHT31;56065;52.472;13.380;2023-03-01T00:59:10;0.34;73.33
69009;SHT31;56065;52.472;13.380;2023-03-01T01:01:36;0.32;72.96
69009;SHT31;56065;52.472;13.380;2023-03-01T01:04:10;0.29;73.55
69009;SHT31;56065;52.472;13.380;2023-03-01T01:06:38;0.32;73.51
69009;SHT31;56065;52.472;13.380;2023-03-01T01:09:05;0.26;74.11
69009;SHT31;56065;52.472;13.380;2023-03-01T01:11:32;0.25;73.33
69009;SHT31;56065;52.472;13.380;2023-03-01T01:13:58;0.24;73.21
69009;SHT31;56065;52.472;13.380;2023-03-01T01:16:25;0.24;73.68
69009;SHT31;56065;52.472;13.380;2023-03-01T01:18:51;0.18;73.70
69009;SHT31;56065;52.472;13.380;2023-03-01T01:21:19;0.11;74.08
69009;SHT31;56065;52.472;13.380;2023-03-01T01:23:45;0.11;73.88
69009;SHT31;56065;52.472;13.380;2023-03-01T01:26:13;0.11;74.08
69009;SHT31;56065;52.472;13.380;2023-03-01T01:28:39;0.08;74.55
69009;SHT31;56065;52.472;13.380;2023-03-01T01:31:05;0.14;74.51
69009;SHT31;56065;52.472;13.380;2023-03-01T01:33:30;0.10;74.04
69009;SHT31;56065;52.472;13.380;2023-03-01T01:35:56;0.08;74.04
69009;SHT31;56065;52.472;13.380;2023-03-01T01:38:21;0.05;74.33
69009;SHT31;56065;52.472;13.380;2023-03-01T01:40:48;0.00;74.70
69009;SHT31;56065;52.472;13.380;2023-03-01T01:43:30;0.03;73.83
69009;SHT31;56065;52.472;13.380;2023-03-01T01:46:14;0.03;73.97
69009;SHT31;56065;52.472;13.380;2023-03-01T01:48:46;0.01;73.82
69009;SHT31;56065;52.472;13.380;2023-03-01T01:51:19;0.01;74.17
69009;SHT31;56065;52.472;13.380;2023-03-01T01:53:50;0.04;73.81
69009;SHT31;56065;52.472;13.380;2023-03-01T01:56:17;0.03;73.91
69009;SHT31;56065;52.472;13.380;2023-03-01T01:58:44;0.05;74.18
69009;SHT31;56065;52.472;13.380;2023-03-01T02:01:10;0.05;74.36
69009;SHT31;56065;52.472;13.380;2023-03-01T02:03:38;0.10;73.97
69009;SHT31;56065;52.472;13.380;2023-03-01T02:06:15;0.08;74.13
69009;SHT31;56065;52.472;13.380;2023-03-01T02:08:42;0.10;74.06
69009;SHT31;56065;52.472;13.380;2023-03-01T02:11:10;0.12;74.34
69009;SHT31;56065;52.472;13.380;2023-03-01T02:13:35;0.14;74.00
69009;SHT31;56065;52.472;13.380;2023-03-01T02:16:08;0.15;73.96
69009;SHT31;56065;52.472;13.380;2023-03-01T02:18:34;0.19;74.38
69009;SHT31;56065;52.472;13.380;2023-03-01T02:23:31;0.14;74.35
69009;SHT31;56065;52.472;13.380;2023-03-01T02:28:40;0.03;74.72
69009;SHT31;56065;52.472;13.380;2023-03-01T02:31:07;-0.02;74.97
69009;SHT31;56065;52.472;13.380;2023-03-01T02:33:53;-0.06;75.16
69009;SHT31;56065;52.472;13.380;2023-03-01T02:36:22;-0.10;74.97
69009;SHT31;56065;52.472;13.380;2023-03-01T02:38:50;-0.13;75.21
69009;SHT31;56065;52.472;13.380;2023-03-01T02:41:17;-0.14;74.84
69009;SHT31;56065;52.472;13.380;2023-03-01T02:43:44;-0.20;75.16
69009;SHT31;56065;52.472;13.380;2023-03-01T02:46:28;-0.27;75.69
69009;SHT31;56065;52.472;13.380;2023-03-01T02:48:56;-0.30;75.37
69009;SHT31;56065;52.472;13.380;2023-03-01T02:51:56;-0.34;75.56
69009;SHT31;56065;52.472;13.380;2023-03-01T02:54:29;-0.42;75.41
69009;SHT31;56065;52.472;13.380;2023-03-01T02:56:56;-0.42;75.08
69009;SHT31;56065;52.472;13.380;2023-03-01T02:59:27;-0.41;74.85
69009;SHT31;56065;52.472;13.380;2023-03-01T03:01:54;-0.40;75.05
69009;SHT31;56065;52.472;13.380;2023-03-01T03:04:19;-0.37;74.93
69009;SHT31;56065;52.472;13.380;2023-03-01T03:06:47;-0.37;75.32
69009;SHT31;56065;52.472;13.380;2023-03-01T03:09:15;-0.34;75.13
69009;SHT31;56065;52.472;13.380;2023-03-01T03:11:40;-0.34;75.02
69009;SHT31;56065;52.472;13.380;2023-03-01T03:14:08;-0.33;74.76
69009;SHT31;56065;52.472;13.380;2023-03-01T03:16:46;-0.31;75.14
69009;SHT31;56065;52.472;13.380;2023-03-01T03:19:12;-0.31;75.39
69009;SHT31;56065;52.472;13.380;2023-03-01T03:21:38;-0.34;75.26
69009;SHT31;56065;52.472;13.380;2023-03-01T03:24:04;-0.28;75.21
69009;SHT31;56065;52.472;13.380;2023-03-01T03:26:30;-0.27;75.56
69009;SHT31;56065;52.472;13.380;2023-03-01T03:28:56;-0.31;76.24
69009;SHT31;56065;52.472;13.380;2023-03-01T03:31:22;-0.28;75.78
69009;SHT31;56065;52.472;13.380;2023-03-01T03:33:47;-0.34;75.77
69009;SHT31;56065;52.472;13.380;2023-03-01T03:36:17;-0.41;76.07
69009;SHT31;56065;52.472;13.380;2023-03-01T03:38:44;-0.44;76.37
69009;SHT31;56065;52.472;13.380;2023-03-01T03:41:11;-0.48;76.23
69009;SHT31;56065;52.472;13.380;2023-03-01T03:43:38;-0.48;76.66
69009;SHT31;56065;52.472;13.380;2023-03-01T03:46:04;-0.56;77.17
69009;SHT31;56065;52.472;13.380;2023-03-01T03:48:34;-0.58;76.82
69009;SHT31;56065;52.472;13.380;2023-03-01T03:51:00;-0.58;76.31
69009;SHT31;56065;52.472;13.380;2023-03-01T03:53:27;-0.61;76.83
69009;SHT31;56065;52.472;13.380;2023-03-01T03:55:53;-0.64;76.64
69009;SHT31;56065;52.472;13.380;2023-03-01T03:58:20;-0.62;76.56
69009;SHT31;56065;52.472;13.380;2023-03-01T04:00:48;-0.67;76.73
69009;SHT31;56065;52.472;13.380;2023-03-01T04:03:15;-0.67;76.96
69009;SHT31;56065;52.472;13.380;2023-03-01T04:05:41;-0.71;76.72
69009;SHT31;56065;52.472;13.380;2023-03-01T04:08:08;-0.69;76.46
69009;SHT31;56065;52.472;13.380;2023-03-01T04:10:39;-0.71;76.53
69009;SHT31;56065;52.472;13.380;2023-03-01T04:13:06;-0.69;76.36
69009;SHT31;56065;52.472;13.380;2023-03-01T04:15:33;-0.71;76.74
69009;SHT31;56065;52.472;13.380;2023-03-01T04:17:59;-0.74;76.80
69009;SHT31;56065;52.472;13.380;2023-03-01T04:20:31;-0.77;76.75
69009;SHT31;56065;52.472;13.380;2023-03-01T04:28:07;-0.78;77.03
69009;SHT31;56065;52.472;13.380;2023-03-01T04:30:33;-0.77;77.34
69009;SHT31;56065;52.472;13.380;2023-03-01T04:33:02;-0.77;77.80
69009;SHT31;56065;52.472;13.380;2023-03-01T04:35:28;-0.78;77.63
69009;SHT31;56065;52.472;13.380;2023-03-01T04:37:54;-0.78;77.45
69009;SHT31;56065;52.472;13.380;2023-03-01T04:40:19;-0.79;77.47
69009;SHT31;56065;52.472;13.380;2023-03-01T04:42:46;-0.82;77.41
69009;SHT31;56065;52.472;13.380;2023-03-01T04:45:12;-0.84;77.68
69009;SHT31;56065;52.472;13.380;2023-03-01T04:47:41;-0.88;77.72
69009;SHT31;56065;52.472;13.380;2023-03-01T04:50:08;-0.89;77.55
69009;SHT31;56065;52.472;13.380;2023-03-01T04:52:34;-0.87;77.42
69009;SHT31;56065;52.472;13.380;2023-03-01T04:55:00;-0.91;77.69
69009;SHT31;56065;52.472;13.380;2023-03-01T04:57:26;-0.89;77.76
69009;SHT31;56065;52.472;13.380;2023-03-01T04:59:51;-0.88;77.39
69009;SHT31;56065;52.472;13.380;2023-03-01T05:02:16;-0.91;77.83
69009;SHT31;56065;52.472;13.380;2023-03-01T05:04:41;-0.92;77.95
69009;SHT31;56065;52.472;13.380;2023-03-01T05:07:07;-0.93;77.71
69009;SHT31;56065;52.472;13.380;2023-03-01T05:09:32;-0.98;78.07
69009;SHT31;56065;52.472;13.380;2023-03-01T05:11:58;-0.99;78.25
69009;SHT31;56065;52.472;13.380;2023-03-01T05:14:23;-0.98;77.74
69009;SHT31;56065;52.472;13.380;2023-03-01T05:16:48;-1.00;78.10
69009;SHT31;56065;52.472;13.380;2023-03-01T05:19:14;-1.00;77.75
69009;SHT31;56065;52.472;13.380;2023-03-01T05:21:42;-1.00;78.52
69009;SHT31;56065;52.472;13.380;2023-03-01T05:24:26;-1.02;78.60
69009;SHT31;56065;52.472;13.380;2023-03-01T05:26:52;-1.00;78.51
69009;SHT31;56065;52.472;13.380;2023-03-01T05:29:19;-1.03;78.46
69009;SHT31;56065;52.472;13.380;2023-03-01T05:31:56;-1.02;78.28
69009;SHT31;56065;52.472;13.380;2023-03-01T05:34:27;-1.06;78.36
69009;SHT31;56065;52.472;13.380;2023-03-01T05:36:53;-1.05;78.72
69009;SHT31;56065;52.472;13.380;2023-03-01T05:39:23;-1.09;78.97
69009;SHT31;56065;52.472;13.380;2023-03-01T05:41:55;-1.08;78.68
69009;SHT31;56065;52.472;13.380;2023-03-01T05:44:22;-1.06;78.70
69009;SHT31;56065;52.472;13.380;2023-03-01T05:46:48;-1.05;78.41
69009;SHT31;56065;52.472;13.380;2023-03-01T05:49:14;-0.99;78.28
69009;SHT31;56065;52.472;13.380;2023-03-01T05:51:40;-0.96;78.60
69009;SHT31;56065;52.472;13.380;2023-03-01T05:54:06;-0.99;78.71
69009;SHT31;56065;52.472;13.380;2023-03-01T05:56:37;-0.98;78.83
69009;SHT31;56065;52.472;13.380;2023-03-01T05:59:03;-0.93;78.49
69009;SHT31;56065;52.472;13.380;2023-03-01T06:01:30;-0.89;78.54
69009;SHT31;56065;52.472;13.380;2023-03-01T06:03:56;-0.88;78.62
69009;SHT31;56065;52.472;13.380;2023-03-01T06:06:22;-0.84;78.55
69009;SHT31;56065;52.472;13.380;2023-03-01T06:08:48;-0.75;78.35
69009;SHT31;56065;52.472;13.380;2023-03-01T06:11:13;-0.69;78.17
69009;SHT31;56065;52.472;13.380;2023-03-01T06:13:38;-0.64;78.13
69009;SHT31;56065;52.472;13.380;2023-03-01T06:16:06;-0.53;78.13
69009;SHT31;56065;52.472;13.380;2023-03-01T06:18:32;-0.42;78.14
69009;SHT31;56065;52.472;13.380;2023-03-01T06:20:57;-0.30;77.91
69009;SHT31;56065;52.472;13.380;2023-03-01T06:23:23;-0.20;78.22
69009;SHT31;56065;52.472;13.380;2023-03-01T06:25:48;0.21;77.85
69009;SHT31;56065;52.472;13.380;2023-03-01T06:28:14;0.89;76.73
69009;SHT31;56065;52.472;13.380;2023-03-01T06:30:40;1.50;75.25
69009;SHT31;56065;52.472;13.380;2023-03-01T06:33:05;2.26;73.82
69009;SHT31;56065;52.472;13.380;2023-03-01T06:35:31;3.19;72.06
69009;SHT31;56065;52.472;13.380;2023-03-01T06:37:58;3.95;69.98
69009;SHT31;56065;52.472;13.380;2023-03-01T06:40:24;4.52;68.03
69009;SHT31;56065;52.472;13.380;2023-03-01T06:42:50;4.80;66.83
69009;SHT31;56065;52.472;13.380;2023-03-01T06:45:17;4.69;66.64
69009;SHT31;56065;52.472;13.380;2023-03-01T06:47:42;4.42;66.41
69009;SHT31;56065;52.472;13.380;2023-03-01T06:50:08;4.12;67.00
69009;SHT31;56065;52.472;13.380;2023-03-01T06:52:33;3.88;67.40
69009;SHT31;56065;52.472;13.380;2023-03-01T06:54:59;3.71;68.04
69009;SHT31;56065;52.472;13.380;2023-03-01T06:57:25;3.88;68.21
69009;SHT31;56065;52.472;13.380;2023-03-01T06:59:50;4.35;67.73
69009;SHT31;56065;52.472;13.380;2023-03-01T07:02:15;4.62;66.83
69009;SHT31;56065;52.472;13.380;2023-03-01T07:04:41;4.73;66.59
69009;SHT31;56065;52.472;13.380;2023-03-01T07:07:07;4.77;66.48
69009;SHT31;56065;52.472;13.380;2023-03-01T07:09:32;5.01;66.28
69009;SHT31;56065;52.472;13.380;2023-03-01T07:11:58;5.10;65.84
69009;SHT31;56065;52.472;13.380;2023-03-01T07:14:24;5.08;65.88
69009;SHT31;56065;52.472;13.380;2023-03-01T07:16:51;5.58;66.04
69009;SHT31;56065;52.472;13.380;2023-03-01T07:19:17;6.27;64.38
69009;SHT31;56065;52.472;13.380;2023-03-01T07:21:42;6.68;63.66
69009;SHT31;56065;52.472;13.380;2023-03-01T07:24:08;7.43;62.17
69009;SHT31;56065;52.472;13.380;2023-03-01T07:26:34;8.01;60.78
69009;SHT31;56065;52.472;13.380;2023-03-01T07:29:00;8.63;60.39
69009;SHT31;56065;52.472;13.380;2023-03-01T07:31:25;9.97;58.12
69009;SHT31;56065;52.472;13.380;2023-03-01T07:33:53;11.46;55.35
69009;SHT31;56065;52.472;13.380;2023-03-01T07:36:19;12.80;53.02
69009;SHT31;56065;52.472;13.380;2023-03-01T07:38:44;14.09;50.27
69009;SHT31;56065;52.472;13.380;2023-03-01T07:41:09;15.28;48.30
69009;SHT31;56065;52.472;13.380;2023-03-01T07:43:35;16.10;46.54
69009;SHT31;56065;52.472;13.380;2023-03-01T07:46:01;16.93;45.41
69009;SHT31;56065;52.472;13.380;2023-03-01T07:48:28;17.60;44.39
69009;SHT31;56065;52.472;13.380;2023-03-01T07:50:53;18.21;42.90
69009;SHT31;56065;52.472;13.380;2023-03-01T07:53:19;18.19;41.48
69009;SHT31;56065;52.472;13.380;2023-03-01T07:55:44;17.85;41.06
69009;SHT31;56065;52.472;13.380;2023-03-01T07:58:09;17.17;41.55
69009;SHT31;56065;52.472;13.380;2023-03-01T08:00:35;15.59;42.36
69009;SHT31;56065;52.472;13.380;2023-03-01T08:03:00;14.34;44.71
69009;SHT31;56065;52.472;13.380;2023-03-01T08:05:26;13.33;45.68
69009;SHT31;56065;52.472;13.380;2023-03-01T08:07:52;12.87;46.93
69009;SHT31;56065;52.472;13.380;2023-03-01T08:10:18;13.40;46.29
69009;SHT31;56065;52.472;13.380;2023-03-01T08:12:43;13.40;46.09
69009;SHT31;56065;52.472;13.380;2023-03-01T08:15:09;13.48;46.22
69009;SHT31;56065;52.472;13.380;2023-03-01T08:17:34;14.22;46.41
69009;SHT31;56065;52.472;13.380;2023-03-01T08:20:00;15.34;44.07
69009;SHT31;56065;52.472;13.380;2023-03-01T08:22:25;16.05;42.96
69009;SHT31;56065;52.472;13.380;2023-03-01T08:24:50;17.22;40.42
69009;SHT31;56065;52.472;13.380;2023-03-01T08:27:16;18.73;39.73
69009;SHT31;56065;52.472;13.380;2023-03-01T08:29:42;19.96;38.95
69009;SHT31;56065;52.472;13.380;2023-03-01T08:32:07;20.49;36.94
69009;SHT31;56065;52.472;13.380;2023-03-01T08:34:32;21.25;37.01
69009;SHT31;56065;52.472;13.380;2023-03-01T08:37:01;21.46;35.94
69009;SHT31;56065;52.472;13.380;2023-03-01T08:39:26;21.43;34.57
69009;SHT31;56065;52.472;13.380;2023-03-01T08:41:52;21.95;34.87
69009;SHT31;56065;52.472;13.380;2023-03-01T08:44:17;22.46;33.33
69009;SHT31;56065;52.472;13.380;2023-03-01T08:46:44;23.66;33.82
69009;SHT31;56065;52.472;13.380;2023-03-01T08:49:16;24.04;32.50
69009;SHT31;56065;52.472;13.380;2023-03-01T08:51:42;24.32;31.09
69009;SHT31;56065;52.472;13.380;2023-03-01T08:54:12;24.60;30.99
69009;SHT31;56065;52.472;13.380;2023-03-01T08:56:39;24.83;30.01
69009;SHT31;56065;52.472;13.380;2023-03-01T08:59:05;25.70;30.36
69009;SHT31;56065;52.472;13.380;2023-03-01T09:01:30;25.67;28.55
69009;SHT31;56065;52.472;13.380;2023-03-01T09:03:56;26.16;29.71
69009;SHT31;56065;52.472;13.380;2023-03-01T09:06:22;25.89;28.10
69009;SHT31;56065;52.472;13.380;2023-03-01T09:08:49;26.30;28.16
69009;SHT31;56065;52.472;13.380;2023-03-01T09:11:19;26.62;27.75
69009;SHT31;56065;52.472;13.380;2023-03-01T09:13:46;26.84;28.23
69009;SHT31;56065;52.472;13.380;2023-03-01T09:16:13;26.89;27.87
69009;SHT31;56065;52.472;13.380;2023-03-01T09:18:39;27.27;27.32
69009;SHT31;56065;52.472;13.380;2023-03-01T09:21:10;26.78;27.19
69009;SHT31;56065;52.472;13.380;2023-03-01T09:23:40;27.23;27.16
69009;SHT31;56065;52.472;13.380;2023-03-01T09:26:11;27.29;27.05
69009;SHT31;56065;52.472;13.380;2023-03-01T09:28:37;27.16;26.75
69009;SHT31;56065;52.472;13.380;2023-03-01T09:31:04;26.82;26.02
69009;SHT31;56065;52.472;13.380;2023-03-01T09:33:30;26.74;26.96
69009;SHT31;56065;52.472;13.380;2023-03-01T09:35:58;26.99;26.42
69009;SHT31;56065;52.472;13.380;2023-03-01T09:38:24;27.10;25.99
69009;SHT31;56065;52.472;13.380;2023-03-01T09:40:49;26.84;26.51
69009;SHT31;56065;52.472;13.380;2023-03-01T09:46:03;26.76;25.75
69009;SHT31;56065;52.472;13.380;2023-03-01T09:48:36;26.95;26.11
69009;SHT31;56065;52.472;13.380;2023-03-01T09:51:06;27.17;26.19
69009;SHT31;56065;52.472;13.380;2023-03-01T09:53:34;27.42;26.35
69009;SHT31;56065;52.472;13.380;2023-03-01T09:56:16;27.22;24.80
69009;SHT31;56065;52.472;13.380;2023-03-01T10:09:37;26.92;25.93
69009;SHT31;56065;52.472;13.380;2023-03-01T10:12:09;26.78;25.64
69009;SHT31;56065;52.472;13.380;2023-03-01T10:14:39;26.64;25.62
69009;SHT31;56065;52.472;13.380;2023-03-01T10:19:46;25.65;26.69
69009;SHT31;56065;52.472;13.380;2023-03-01T10:22:16;25.66;26.59
69009;SHT31;56065;52.472;13.380;2023-03-01T10:24:44;25.83;26.83
69009;SHT31;56065;52.472;13.380;2023-03-01T10:27:19;25.85;26.56
69009;SHT31;56065;52.472;13.380;2023-03-01T10:30:05;26.04;25.82
69009;SHT31;56065;52.472;13.380;2023-03-01T10:32:33;26.38;26.17
69009;SHT31;56065;52.472;13.380;2023-03-01T10:34:58;26.10;26.36
69009;SHT31;56065;52.472;13.380;2023-03-01T10:37:24;25.18;26.94
69009;SHT31;56065;52.472;13.380;2023-03-01T10:40:05;25.08;28.22
69009;SHT31;56065;52.472;13.380;2023-03-01T10:42:39;25.24;26.82
69009;SHT31;56065;52.472;13.380;2023-03-01T10:48:24;23.85;27.69
69009;SHT31;56065;52.472;13.380;2023-03-01T10:51:12;23.84;27.17
69009;SHT31;56065;52.472;13.380;2023-03-01T10:53:42;23.53;28.10
69009;SHT31;56065;52.472;13.380;2023-03-01T10:56:13;23.10;28.07
69009;SHT31;56065;52.472;13.380;2023-03-01T10:59:05;23.07;28.58
69009;SHT31;56065;52.472;13.380;2023-03-01T11:01:33;22.63;28.94
69009;SHT31;56065;52.472;13.380;2023-03-01T11:04:10;22.99;28.39
69009;SHT31;56065;52.472;13.380;2023-03-01T11:06:37;23.07;28.91
69009;SHT31;56065;52.472;13.380;2023-03-01T11:09:21;23.02;28.19
69009;SHT31;56065;52.472;13.380;2023-03-01T11:11:55;23.81;28.15
69009;SHT31;56065;52.472;13.380;2023-03-01T11:14:26;24.60;27.66
69009;SHT31;56065;52.472;13.380;2023-03-01T11:17:44;24.90;27.53
69009;SHT31;56065;52.472;13.380;2023-03-01T11:22:49;24.54;26.87
69009;SHT31;56065;52.472;13.380;2023-03-01T11:25:15;23.98;26.87
69009;SHT31;56065;52.472;13.380;2023-03-01T11:27:44;23.53;27.29
69009;SHT31;56065;52.472;13.380;2023-03-01T11:30:29;23.07;27.64
69009;SHT31;56065;52.472;13.380;2023-03-01T11:35:34;23.24;28.30
69009;SHT31;56065;52.472;13.380;2023-03-01T11:38:22;23.81;27.33
69009;SHT31;56065;52.472;13.380;2023-03-01T11:43:23;24.63;27.06
69009;SHT31;56065;52.472;13.380;2023-03-01T11:46:02;24.66;26.68
69009;SHT31;56065;52.472;13.380;2023-03-01T11:51:41;24.60;25.95
69009;SHT31;56065;52.472;13.380;2023-03-01T11:54:41;24.81;26.39
69009;SHT31;56065;52.472;13.380;2023-03-01T12:08:20;23.92;27.12
69009;SHT31;56065;52.472;13.380;2023-03-01T12:11:18;24.22;26.79
69009;SHT31;56065;52.472;13.380;2023-03-01T12:14:03;24.04;26.39
69009;SHT31;56065;52.472;13.380;2023-03-01T12:19:26;24.88;26.40
69009;SHT31;56065;52.472;13.380;2023-03-01T12:24:56;25.25;24.90
69009;SHT31;56065;52.472;13.380;2023-03-01T12:27:36;24.41;25.42
69009;SHT31;56065;52.472;13.380;2023-03-01T12:30:46;23.66;25.37
69009;SHT31;56065;52.472;13.380;2023-03-01T12:36:21;23.55;26.18
69009;SHT31;56065;52.472;13.380;2023-03-01T12:42:21;23.59;25.12
69009;SHT31;56065;52.472;13.380;2023-03-01T12:50:03;23.89;25.49
69009;SHT31;56065;52.472;13.380;2023-03-01T12:52:42;24.19;25.35
69009;SHT31;56065;52.472;13.380;2023-03-01T12:55:39;24.44;24.55
69009;SHT31;56065;52.472;13.380;2023-03-01T12:58:32;23.50;25.05
69009;SHT31;56065;52.472;13.380;2023-03-01T13:03:58;22.46;25.98
69009;SHT31;56065;52.472;13.380;2023-03-01T13:11:56;21.67;26.87
69009;SHT31;56065;52.472;13.380;2023-03-01T13:16:53;20.68;26.52
69009;SHT31;56065;52.472;13.380;2023-03-01T13:19:27;20.57;27.38
69009;SHT31;56065;52.472;13.380;2023-03-01T13:21:55;20.81;27.46
69009;SHT31;56065;52.472;13.380;2023-03-01T13:29:47;20.45;27.11
69009;SHT31;56065;52.472;13.380;2023-03-01T13:32:27;20.04;27.45
69009;SHT31;56065;52.472;13.380;2023-03-01T13:35:01;20.07;27.48
69009;SHT31;56065;52.472;13.380;2023-03-01T13:37:34;19.72;27.04
69009;SHT31;56065;52.472;13.380;2023-03-01T13:40:03;19.25;27.50
69009;SHT31;56065;52.472;13.380;2023-03-01T13:42:38;18.87;27.74
69009;SHT31;56065;52.472;13.380;2023-03-01T13:45:23;18.57;27.79
69009;SHT31;56065;52.472;13.380;2023-03-01T13:47:55;18.13;27.80
69009;SHT31;56065;52.472;13.380;2023-03-01T13:50:25;17.67;28.01
69009;SHT31;56065;52.472;13.380;2023-03-01T13:55:40;17.17;29.10
69009;SHT31;56065;52.472;13.380;2023-03-01T13:58:30;16.87;28.80
69009;SHT31;56065;52.472;13.380;2023-03-01T14:01:00;16.72;29.83
69009;SHT31;56065;52.472;13.380;2023-03-01T14:03:27;16.49;29.97
69009;SHT31;56065;52.472;13.380;2023-03-01T14:06:12;16.47;29.73
69009;SHT31;56065;52.472;13.380;2023-03-01T14:08:38;16.51;29.82
69009;SHT31;56065;52.472;13.380;2023-03-01T14:14:23;16.95;29.83
69009;SHT31;56065;52.472;13.380;2023-03-01T14:19:30;16.97;30.40
69009;SHT31;56065;52.472;13.380;2023-03-01T14:25:00;17.09;30.61
69009;SHT31;56065;52.472;13.380;2023-03-01T14:27:33;17.22;30.41
69009;SHT31;56065;52.472;13.380;2023-03-01T14:30:03;17.26;30.18
69009;SHT31;56065;52.472;13.380;2023-03-01T14:32:30;17.36;30.40
69009;SHT31;56065;52.472;13.380;2023-03-01T14:34:58;17.24;29.47
69009;SHT31;56065;52.472;13.380;2023-03-01T14:37:27;16.90;29.67
69009;SHT31;56065;52.472;13.380;2023-03-01T14:39:53;16.64;30.38
69009;SHT31;56065;52.472;13.380;2023-03-01T14:42:21;16.59;30.58
69009;SHT31;56065;52.472;13.380;2023-03-01T14:44:49;16.52;30.89
69009;SHT31;56065;52.472;13.380;2023-03-01T14:47:23;16.56;30.44
69009;SHT31;56065;52.472;13.380;2023-03-01T14:49:56;16.45;31.36
69009;SHT31;56065;52.472;13.380;2023-03-01T14:52:27;16.41;31.29
69009;SHT31;56065;52.472;13.380;2023-03-01T14:54:55;16.38;31.33
69009;SHT31;56065;52.472;13.380;2023-03-01T14:57:24;16.34;31.52
69009;SHT31;56065;52.472;13.380;2023-03-01T14:59:51;16.40;31.67
69009;SHT31;56065;52.472;13.380;2023-03-01T15:02:23;16.36;31.33
69009;SHT31;56065;52.472;13.380;2023-03-01T15:04:51;16.15;31.61
69009;SHT31;56065;52.472;13.380;2023-03-01T15:07:18;16.00;31.68
69009;SHT31;56065;52.472;13.380;2023-03-01T15:09:44;15.97;32.34
69009;SHT31;56065;52.472;13.380;2023-03-01T15:12:35;15.70;33.36
69009;SHT31;56065;52.472;13.380;2023-03-01T15:15:00;15.32;33.61
69009;SHT31;56065;52.472;13.380;2023-03-01T15:20:06;14.47;35.44
69009;SHT31;56065;52.472;13.380;2023-03-01T15:22:32;14.09;36.28
69009;SHT31;56065;52.472;13.380;2023-03-01T15:24:57;13.87;36.45
69009;SHT31;56065;52.472;13.380;2023-03-01T15:27:24;13.71;36.95
69009;SHT31;56065;52.472;13.380;2023-03-01T15:29:55;13.69;37.41
69009;SHT31;56065;52.472;13.380;2023-03-01T15:32:33;13.59;37.67
69009;SHT31;56065;52.472;13.380;2023-03-01T15:35:01;13.58;38.13
69009;SHT31;56065;52.472;13.380;2023-03-01T15:37:46;13.47;38.33
69009;SHT31;56065;52.472;13.380;2023-03-01T15:42:49;13.41;38.33
69009;SHT31;56065;52.472;13.380;2023-03-01T15:47:47;13.24;38.86
69009;SHT31;56065;52.472;13.380;2023-03-01T15:50:28;13.10;38.94
69009;SHT31;56065;52.472;13.380;2023-03-01T15:52:56;13.00;38.94
69009;SHT31;56065;52.472;13.380;2023-03-01T15:55:26;12.82;39.66
69009;SHT31;56065;52.472;13.380;2023-03-01T16:00:25;12.56;39.89
69009;SHT31;56065;52.472;13.380;2023-03-01T16:02:51;12.43;40.46
69009;SHT31;56065;52.472;13.380;2023-03-01T16:07:46;12.36;40.54
69009;SHT31;56065;52.472;13.380;2023-03-01T16:10:11;12.32;40.54
69009;SHT31;56065;52.472;13.380;2023-03-01T16:12:37;12.21;40.86
69009;SHT31;56065;52.472;13.380;2023-03-01T16:15:07;12.21;41.01
69009;SHT31;56065;52.472;13.380;2023-03-01T16:17:36;12.22;40.96
69009;SHT31;56065;52.472;13.380;2023-03-01T16:20:02;12.17;40.67
69009;SHT31;56065;52.472;13.380;2023-03-01T16:22:27;12.12;40.77
69009;SHT31;56065;52.472;13.380;2023-03-01T16:24:53;11.95;41.34
69009;SHT31;56065;52.472;13.380;2023-03-01T16:27:18;11.77;41.63
69009;SHT31;56065;52.472;13.380;2023-03-01T16:29:45;11.52;42.20
69009;SHT31;56065;52.472;13.380;2023-03-01T16:32:10;11.30;42.51
69009;SHT31;56065;52.472;13.380;2023-03-01T16:34:36;11.05;42.61
69009;SHT31;56065;52.472;13.380;2023-03-01T16:37:01;10.74;42.73
69009;SHT31;56065;52.472;13.380;2023-03-01T16:39:26;10.54;43.43
69009;SHT31;56065;52.472;13.380;2023-03-01T16:41:52;10.30;43.99
69009;SHT31;56065;52.472;13.380;2023-03-01T16:44:17;10.09;44.90
69009;SHT31;56065;52.472;13.380;2023-03-01T16:46:43;9.93;44.43
69009;SHT31;56065;52.472;13.380;2023-03-01T16:49:08;9.76;44.81
69009;SHT31;56065;52.472;13.380;2023-03-01T16:51:34;9.59;45.55
69009;SHT31;56065;52.472;13.380;2023-03-01T16:54:01;9.44;46.88
69009;SHT31;56065;52.472;13.380;2023-03-01T16:56:27;9.28;46.59
69009;SHT31;56065;52.472;13.380;2023-03-01T16:58:54;9.21;46.35
69009;SHT31;56065;52.472;13.380;2023-03-01T17:01:19;9.11;46.41
69009;SHT31;56065;52.472;13.380;2023-03-01T17:03:46;9.01;47.10
69009;SHT31;56065;52.472;13.380;2023-03-01T17:06:14;8.90;47.58
69009;SHT31;56065;52.472;13.380;2023-03-01T17:08:40;8.85;47.50
69009;SHT31;56065;52.472;13.380;2023-03-01T17:11:14;8.80;47.91
69009;SHT31;56065;52.472;13.380;2023-03-01T17:13:40;8.70;47.40
69009;SHT31;56065;52.472;13.380;2023-03-01T17:16:08;8.57;47.54
69009;SHT31;56065;52.472;13.380;2023-03-01T17:18:34;8.48;48.17
69009;SHT31;56065;52.472;13.380;2023-03-01T17:21:00;8.43;48.21